sensor_id;sensor_type;location;lat;lon;timestamp;P1;durP1;ratioP1;P2;durP2;ratioP2
59442;SDS011;45247;47.466;19.004;2023-01-16T00:00:19;36.95;;;22.27;;
59442;SDS011;45247;47.466;19.004;2023-01-16T00:02:48;40.63;;;22.85;;
59442;SDS011;45247;47.466;19.004;2023-01-16T00:05:16;32.53;;;20.48;;
59442;SDS011;45247;47.466;19.004;2023-01-16T00:07:46;32.70;;;21.10;;
59442;SDS011;45247;47.466;19.004;2023-01-16T00:10:14;36.70;;;21.65;;
59442;SDS011;45247;47.466;19.004;2023-01-16T00:12:46;36.63;;;22.02;;
59442;SDS011;45247;47.466;19.004;2023-01-16T00:15:14;43.58;;;22.63;;
59442;SDS011;45247;47.466;19.004;2023-01-16T00:17:43;37.03;;;22.75;;
59442;SDS011;45247;47.466;19.004;2023-01-16T00:20:11;40.40;;;22.42;;
59442;SDS011;45247;47.466;19.004;2023-01-16T00:22:39;39.33;;;23.15;;
59442;SDS011;45247;47.466;19.004;2023-01-16T00:25:09;38.22;;;22.73;;
59442;SDS011;45247;47.466;19.004;2023-01-16T00:27:37;33.05;;;21.20;;
59442;SDS011;45247;47.466;19.004;2023-01-16T00:30:06;39.55;;;22.23;;
59442;SDS011;45247;47.466;19.004;2023-01-16T00:32:35;35.75;;;21.73;;
59442;SDS011;45247;47.466;19.004;2023-01-16T00:35:03;40.03;;;23.05;;
59442;SDS011;45247;47.466;19.004;2023-01-16T00:37:32;32.65;;;19.70;;
59442;SDS011;45247;47.466;19.004;2023-01-16T00:40:00;32.10;;;18.98;;
59442;SDS011;45247;47.466;19.004;2023-01-16T00:42:30;26.88;;;17.27;;
59442;SDS011;45247;47.466;19.004;2023-01-16T00:44:58;31.00;;;17.95;;
59442;SDS011;45247;47.466;19.004;2023-01-16T00:47:26;34.22;;;20.02;;
59442;SDS011;45247;47.466;19.004;2023-01-16T00:49:54;31.75;;;18.73;;
59442;SDS011;45247;47.466;19.004;2023-01-16T00:52:22;29.45;;;18.00;;
59442;SDS011;45247;47.466;19.004;2023-01-16T00:54:51;34.15;;;21.58;;
59442;SDS011;45247;47.466;19.004;2023-01-16T00:57:19;36.13;;;20.85;;
59442;SDS011;45247;47.466;19.004;2023-01-16T00:59:48;36.53;;;20.45;;
59442;SDS011;45247;47.466;19.004;2023-01-16T01:02:16;32.80;;;20.80;;
59442;SDS011;45247;47.466;19.004;2023-01-16T01:04:45;31.67;;;19.50;;
59442;SDS011;45247;47.466;19.004;2023-01-16T01:07:13;32.83;;;20.20;;
59442;SDS011;45247;47.466;19.004;2023-01-16T01:09:41;38.13;;;23.63;;
59442;SDS011;45247;47.466;19.004;2023-01-16T01:12:09;39.58;;;22.95;;
59442;SDS011;45247;47.466;19.004;2023-01-16T01:14:37;40.60;;;23.77;;
59442;SDS011;45247;47.466;19.004;2023-01-16T01:17:07;40.33;;;22.23;;
59442;SDS011;45247;47.466;19.004;2023-01-16T01:19:36;40.50;;;22.10;;
59442;SDS011;45247;47.466;19.004;2023-01-16T01:22:19;39.00;;;21.70;;
59442;SDS011;45247;47.466;19.004;2023-01-16T01:24:47;32.70;;;20.85;;
59442;SDS011;45247;47.466;19.004;2023-01-16T01:27:16;33.47;;;20.10;;
59442;SDS011;45247;47.466;19.004;2023-01-16T01:29:44;32.85;;;20.60;;
59442;SDS011;45247;47.466;19.004;2023-01-16T01:32:14;31.50;;;17.35;;
59442;SDS011;45247;47.466;19.004;2023-01-16T01:34:42;32.60;;;19.20;;
59442;SDS011;45247;47.466;19.004;2023-01-16T01:37:10;31.70;;;17.90;;
59442;SDS011;45247;47.466;19.004;2023-01-16T01:39:38;28.92;;;16.10;;
59442;SDS011;45247;47.466;19.004;2023-01-16T01:42:09;32.83;;;18.85;;
59442;SDS011;45247;47.466;19.004;2023-01-16T01:44:55;25.35;;;16.45;;
59442;SDS011;45247;47.466;19.004;2023-01-16T01:47:28;25.90;;;16.50;;
59442;SDS011;45247;47.466;19.004;2023-01-16T01:50:00;24.25;;;15.52;;
59442;SDS011;45247;47.466;19.004;2023-01-16T01:52:31;27.52;;;17.10;;
59442;SDS011;45247;47.466;19.004;2023-01-16T01:55:01;26.42;;;16.58;;
59442;SDS011;45247;47.466;19.004;2023-01-16T01:57:34;27.73;;;16.98;;
59442;SDS011;45247;47.466;19.004;2023-01-16T02:00:07;27.52;;;16.25;;
59442;SDS011;45247;47.466;19.004;2023-01-16T02:02:41;27.75;;;17.23;;
59442;SDS011;45247;47.466;19.004;2023-01-16T02:05:12;26.05;;;16.10;;
59442;SDS011;45247;47.466;19.004;2023-01-16T02:07:47;27.98;;;16.60;;
59442;SDS011;45247;47.466;19.004;2023-01-16T02:10:19;26.52;;;15.60;;
59442;SDS011;45247;47.466;19.004;2023-01-16T02:12:55;25.42;;;15.90;;
59442;SDS011;45247;47.466;19.004;2023-01-16T02:15:24;26.50;;;15.93;;
59442;SDS011;45247;47.466;19.004;2023-01-16T02:17:54;23.25;;;15.82;;
59442;SDS011;45247;47.466;19.004;2023-01-16T02:20:53;24.02;;;14.82;;
59442;SDS011;45247;47.466;19.004;2023-01-16T02:23:51;28.83;;;16.38;;
59442;SDS011;45247;47.466;19.004;2023-01-16T02:26:45;26.75;;;15.73;;
59442;SDS011;45247;47.466;19.004;2023-01-16T02:32:41;25.27;;;15.27;;
59442;SDS011;45247;47.466;19.004;2023-01-16T02:35:27;27.63;;;17.25;;
59442;SDS011;45247;47.466;19.004;2023-01-16T02:38:17;28.30;;;16.92;;
59442;SDS011;45247;47.466;19.004;2023-01-16T02:40:52;22.75;;;15.43;;
59442;SDS011;45247;47.466;19.004;2023-01-16T02:43:30;26.77;;;16.77;;
59442;SDS011;45247;47.466;19.004;2023-01-16T02:46:05;27.38;;;16.48;;
59442;SDS011;45247;47.466;19.004;2023-01-16T02:48:43;29.27;;;17.45;;
59442;SDS011;45247;47.466;19.004;2023-01-16T02:51:20;29.27;;;16.35;;
59442;SDS011;45247;47.466;19.004;2023-01-16T02:53:57;29.45;;;16.17;;
59442;SDS011;45247;47.466;19.004;2023-01-16T02:56:30;28.90;;;16.90;;
59442;SDS011;45247;47.466;19.004;2023-01-16T02:59:08;29.15;;;16.67;;
59442;SDS011;45247;47.466;19.004;2023-01-16T03:01:38;29.30;;;16.60;;
59442;SDS011;45247;47.466;19.004;2023-01-16T03:10:18;29.77;;;17.23;;
59442;SDS011;45247;47.466;19.004;2023-01-16T03:12:59;26.73;;;16.90;;
59442;SDS011;45247;47.466;19.004;2023-01-16T03:15:39;29.60;;;16.80;;
59442;SDS011;45247;47.466;19.004;2023-01-16T03:18:17;31.83;;;17.70;;
59442;SDS011;45247;47.466;19.004;2023-01-16T03:20:59;28.97;;;18.57;;
59442;SDS011;45247;47.466;19.004;2023-01-16T03:23:34;26.15;;;17.67;;
59442;SDS011;45247;47.466;19.004;2023-01-16T03:26:13;27.70;;;16.33;;
59442;SDS011;45247;47.466;19.004;2023-01-16T03:28:46;25.67;;;16.40;;
59442;SDS011;45247;47.466;19.004;2023-01-16T03:31:26;23.45;;;14.32;;
59442;SDS011;45247;47.466;19.004;2023-01-16T03:34:04;19.92;;;12.35;;
59442;SDS011;45247;47.466;19.004;2023-01-16T03:36:45;24.25;;;14.55;;
59442;SDS011;45247;47.466;19.004;2023-01-16T03:39:18;24.10;;;14.80;;
59442;SDS011;45247;47.466;19.004;2023-01-16T03:41:50;23.27;;;14.82;;
59442;SDS011;45247;47.466;19.004;2023-01-16T03:44:23;22.90;;;13.48;;
59442;SDS011;45247;47.466;19.004;2023-01-16T03:46:56;20.98;;;13.68;;
59442;SDS011;45247;47.466;19.004;2023-01-16T03:49:28;21.95;;;14.05;;
59442;SDS011;45247;47.466;19.004;2023-01-16T03:52:03;24.98;;;15.15;;
59442;SDS011;45247;47.466;19.004;2023-01-16T03:54:35;24.02;;;14.55;;
59442;SDS011;45247;47.466;19.004;2023-01-16T03:57:10;24.25;;;14.48;;
59442;SDS011;45247;47.466;19.004;2023-01-16T03:59:42;24.63;;;13.55;;
59442;SDS011;45247;47.466;19.004;2023-01-16T04:02:13;24.60;;;14.13;;
59442;SDS011;45247;47.466;19.004;2023-01-16T04:04:47;29.20;;;14.90;;
59442;SDS011;45247;47.466;19.004;2023-01-16T04:09:53;25.30;;;13.85;;
59442;SDS011;45247;47.466;19.004;2023-01-16T04:12:26;26.17;;;14.23;;
59442;SDS011;45247;47.466;19.004;2023-01-16T04:14:59;25.80;;;14.38;;
59442;SDS011;45247;47.466;19.004;2023-01-16T04:17:32;25.92;;;14.50;;
59442;SDS011;45247;47.466;19.004;2023-01-16T04:20:01;29.77;;;16.13;;
59442;SDS011;45247;47.466;19.004;2023-01-16T04:22:32;24.05;;;13.93;;
59442;SDS011;45247;47.466;19.004;2023-01-16T04:25:01;27.83;;;15.82;;
59442;SDS011;45247;47.466;19.004;2023-01-16T04:27:32;28.75;;;16.17;;
59442;SDS011;45247;47.466;19.004;2023-01-16T04:30:04;26.30;;;14.80;;
59442;SDS011;45247;47.466;19.004;2023-01-16T04:32:33;26.95;;;15.45;;
59442;SDS011;45247;47.466;19.004;2023-01-16T04:35:01;24.73;;;14.82;;
59442;SDS011;45247;47.466;19.004;2023-01-16T04:37:30;26.92;;;15.70;;
59442;SDS011;45247;47.466;19.004;2023-01-16T04:40:00;21.58;;;13.55;;
59442;SDS011;45247;47.466;19.004;2023-01-16T04:42:28;27.17;;;16.40;;
59442;SDS011;45247;47.466;19.004;2023-01-16T04:44:57;34.15;;;19.27;;
59442;SDS011;45247;47.466;19.004;2023-01-16T04:47:25;31.88;;;20.88;;
59442;SDS011;45247;47.466;19.004;2023-01-16T04:49:53;39.35;;;21.88;;
59442;SDS011;45247;47.466;19.004;2023-01-16T04:52:21;37.78;;;20.45;;
59442;SDS011;45247;47.466;19.004;2023-01-16T04:54:51;37.05;;;19.80;;
59442;SDS011;45247;47.466;19.004;2023-01-16T04:57:19;37.38;;;20.70;;
59442;SDS011;45247;47.466;19.004;2023-01-16T04:59:47;33.97;;;19.17;;
59442;SDS011;45247;47.466;19.004;2023-01-16T05:02:15;37.15;;;20.23;;
59442;SDS011;45247;47.466;19.004;2023-01-16T05:04:43;36.08;;;19.33;;
59442;SDS011;45247;47.466;19.004;2023-01-16T05:07:12;32.03;;;18.55;;
59442;SDS011;45247;47.466;19.004;2023-01-16T05:09:40;36.65;;;20.15;;
59442;SDS011;45247;47.466;19.004;2023-01-16T05:12:10;34.83;;;19.60;;
59442;SDS011;45247;47.466;19.004;2023-01-16T05:14:38;32.72;;;18.60;;
59442;SDS011;45247;47.466;19.004;2023-01-16T05:17:06;33.70;;;18.63;;
59442;SDS011;45247;47.466;19.004;2023-01-16T05:19:34;31.10;;;19.80;;
59442;SDS011;45247;47.466;19.004;2023-01-16T05:22:02;38.75;;;19.95;;
59442;SDS011;45247;47.466;19.004;2023-01-16T05:24:30;33.05;;;17.65;;
59442;SDS011;45247;47.466;19.004;2023-01-16T05:26:59;34.03;;;18.73;;
59442;SDS011;45247;47.466;19.004;2023-01-16T05:29:28;27.20;;;16.50;;
59442;SDS011;45247;47.466;19.004;2023-01-16T05:31:56;23.55;;;16.17;;
59442;SDS011;45247;47.466;19.004;2023-01-16T05:34:24;26.92;;;15.43;;
59442;SDS011;45247;47.466;19.004;2023-01-16T05:36:52;30.75;;;16.00;;
59442;SDS011;45247;47.466;19.004;2023-01-16T05:39:21;23.70;;;14.98;;
59442;SDS011;45247;47.466;19.004;2023-01-16T05:41:49;29.02;;;15.45;;
59442;SDS011;45247;47.466;19.004;2023-01-16T05:44:17;23.05;;;14.48;;
59442;SDS011;45247;47.466;19.004;2023-01-16T05:46:47;30.38;;;16.95;;
59442;SDS011;45247;47.466;19.004;2023-01-16T05:49:17;30.52;;;18.05;;
59442;SDS011;45247;47.466;19.004;2023-01-16T05:51:45;25.90;;;15.98;;
59442;SDS011;45247;47.466;19.004;2023-01-16T05:54:13;29.05;;;17.15;;
59442;SDS011;45247;47.466;19.004;2023-01-16T05:56:41;27.80;;;16.08;;
59442;SDS011;45247;47.466;19.004;2023-01-16T05:59:10;27.00;;;16.75;;
59442;SDS011;45247;47.466;19.004;2023-01-16T06:01:38;29.25;;;16.60;;
59442;SDS011;45247;47.466;19.004;2023-01-16T06:04:07;25.75;;;16.60;;
59442;SDS011;45247;47.466;19.004;2023-01-16T06:06:36;30.02;;;17.65;;
59442;SDS011;45247;47.466;19.004;2023-01-16T06:09:04;32.35;;;18.35;;
59442;SDS011;45247;47.466;19.004;2023-01-16T06:11:32;33.05;;;19.25;;
59442;SDS011;45247;47.466;19.004;2023-01-16T06:14:00;36.80;;;19.83;;
59442;SDS011;45247;47.466;19.004;2023-01-16T06:16:31;39.50;;;20.02;;
59442;SDS011;45247;47.466;19.004;2023-01-16T06:18:59;30.83;;;18.05;;
59442;SDS011;45247;47.466;19.004;2023-01-16T06:21:29;29.08;;;17.63;;
59442;SDS011;45247;47.466;19.004;2023-01-16T06:23:57;32.55;;;18.17;;
59442;SDS011;45247;47.466;19.004;2023-01-16T06:26:25;35.55;;;20.00;;
59442;SDS011;45247;47.466;19.004;2023-01-16T06:28:53;35.35;;;19.83;;
59442;SDS011;45247;47.466;19.004;2023-01-16T06:31:22;37.80;;;19.42;;
59442;SDS011;45247;47.466;19.004;2023-01-16T06:33:51;39.05;;;19.90;;
59442;SDS011;45247;47.466;19.004;2023-01-16T06:36:19;43.08;;;22.33;;
59442;SDS011;45247;47.466;19.004;2023-01-16T06:38:49;48.17;;;24.63;;
59442;SDS011;45247;47.466;19.004;2023-01-16T06:41:17;44.38;;;22.02;;
59442;SDS011;45247;47.466;19.004;2023-01-16T06:43:45;46.10;;;25.08;;
59442;SDS011;45247;47.466;19.004;2023-01-16T06:46:13;54.70;;;26.75;;
59442;SDS011;45247;47.466;19.004;2023-01-16T06:48:41;48.60;;;25.95;;
59442;SDS011;45247;47.466;19.004;2023-01-16T06:51:12;49.08;;;24.60;;
59442;SDS011;45247;47.466;19.004;2023-01-16T06:53:40;50.95;;;26.50;;
59442;SDS011;45247;47.466;19.004;2023-01-16T06:56:10;52.83;;;28.83;;
59442;SDS011;45247;47.466;19.004;2023-01-16T06:58:38;58.88;;;29.48;;
59442;SDS011;45247;47.466;19.004;2023-01-16T07:01:06;52.60;;;27.90;;
59442;SDS011;45247;47.466;19.004;2023-01-16T07:03:35;59.90;;;30.48;;
59442;SDS011;45247;47.466;19.004;2023-01-16T07:06:04;55.15;;;29.63;;
59442;SDS011;45247;47.466;19.004;2023-01-16T07:08:33;73.78;;;32.88;;
59442;SDS011;45247;47.466;19.004;2023-01-16T07:11:01;68.93;;;32.45;;
59442;SDS011;45247;47.466;19.004;2023-01-16T07:13:32;65.68;;;29.70;;
59442;SDS011;45247;47.466;19.004;2023-01-16T07:16:00;65.07;;;31.58;;
59442;SDS011;45247;47.466;19.004;2023-01-16T07:18:45;64.30;;;30.38;;
59442;SDS011;45247;47.466;19.004;2023-01-16T07:21:31;57.13;;;30.88;;
59442;SDS011;45247;47.466;19.004;2023-01-16T07:24:18;63.67;;;31.17;;
59442;SDS011;45247;47.466;19.004;2023-01-16T07:26:49;64.57;;;30.83;;
59442;SDS011;45247;47.466;19.004;2023-01-16T07:29:21;58.42;;;31.60;;
59442;SDS011;45247;47.466;19.004;2023-01-16T07:31:50;56.25;;;28.42;;
59442;SDS011;45247;47.466;19.004;2023-01-16T07:34:18;50.40;;;27.00;;
59442;SDS011;45247;47.466;19.004;2023-01-16T07:36:48;50.55;;;27.02;;
59442;SDS011;45247;47.466;19.004;2023-01-16T07:39:16;56.53;;;29.70;;
59442;SDS011;45247;47.466;19.004;2023-01-16T07:41:44;49.28;;;26.20;;
59442;SDS011;45247;47.466;19.004;2023-01-16T07:44:24;46.45;;;24.73;;
59442;SDS011;45247;47.466;19.004;2023-01-16T07:46:53;47.22;;;24.23;;
59442;SDS011;45247;47.466;19.004;2023-01-16T07:49:21;43.58;;;23.92;;
59442;SDS011;45247;47.466;19.004;2023-01-16T07:51:49;39.25;;;22.80;;
59442;SDS011;45247;47.466;19.004;2023-01-16T07:54:17;46.80;;;22.75;;
59442;SDS011;45247;47.466;19.004;2023-01-16T07:56:47;42.25;;;21.38;;
59442;SDS011;45247;47.466;19.004;2023-01-16T07:59:16;40.92;;;21.20;;
59442;SDS011;45247;47.466;19.004;2023-01-16T08:01:45;39.05;;;22.38;;
59442;SDS011;45247;47.466;19.004;2023-01-16T08:04:13;33.88;;;18.77;;
59442;SDS011;45247;47.466;19.004;2023-01-16T08:06:42;36.97;;;19.90;;
59442;SDS011;45247;47.466;19.004;2023-01-16T08:09:11;33.50;;;19.80;;
59442;SDS011;45247;47.466;19.004;2023-01-16T08:11:39;36.45;;;20.77;;
59442;SDS011;45247;47.466;19.004;2023-01-16T08:14:13;34.58;;;19.83;;
59442;SDS011;45247;47.466;19.004;2023-01-16T08:16:41;35.33;;;19.60;;
59442;SDS011;45247;47.466;19.004;2023-01-16T08:19:11;35.45;;;19.52;;
59442;SDS011;45247;47.466;19.004;2023-01-16T08:21:40;33.97;;;19.60;;
59442;SDS011;45247;47.466;19.004;2023-01-16T08:24:08;36.22;;;20.23;;
59442;SDS011;45247;47.466;19.004;2023-01-16T08:26:39;36.25;;;19.85;;
59442;SDS011;45247;47.466;19.004;2023-01-16T08:29:07;34.50;;;19.17;;
59442;SDS011;45247;47.466;19.004;2023-01-16T08:31:36;35.55;;;19.77;;
59442;SDS011;45247;47.466;19.004;2023-01-16T08:34:05;35.88;;;18.92;;
59442;SDS011;45247;47.466;19.004;2023-01-16T08:36:35;36.05;;;19.33;;
59442;SDS011;45247;47.466;19.004;2023-01-16T08:39:03;37.40;;;20.05;;
59442;SDS011;45247;47.466;19.004;2023-01-16T08:41:31;35.22;;;19.55;;
59442;SDS011;45247;47.466;19.004;2023-01-16T08:44:17;36.38;;;19.20;;
59442;SDS011;45247;47.466;19.004;2023-01-16T08:47:04;37.33;;;19.85;;
59442;SDS011;45247;47.466;19.004;2023-01-16T08:49:53;35.75;;;18.58;;
59442;SDS011;45247;47.466;19.004;2023-01-16T08:52:39;31.83;;;18.02;;
59442;SDS011;45247;47.466;19.004;2023-01-16T08:55:09;36.33;;;18.63;;
59442;SDS011;45247;47.466;19.004;2023-01-16T08:57:37;30.00;;;17.17;;
59442;SDS011;45247;47.466;19.004;2023-01-16T09:00:06;32.95;;;17.58;;
59442;SDS011;45247;47.466;19.004;2023-01-16T09:02:36;37.35;;;17.92;;
59442;SDS011;45247;47.466;19.004;2023-01-16T09:05:05;34.15;;;18.15;;
59442;SDS011;45247;47.466;19.004;2023-01-16T09:07:34;28.05;;;16.90;;
59442;SDS011;45247;47.466;19.004;2023-01-16T09:10:04;27.90;;;16.55;;
59442;SDS011;45247;47.466;19.004;2023-01-16T09:12:33;32.72;;;18.00;;
59442;SDS011;45247;47.466;19.004;2023-01-16T09:15:18;35.67;;;18.63;;
59442;SDS011;45247;47.466;19.004;2023-01-16T09:17:47;34.53;;;18.75;;
59442;SDS011;45247;47.466;19.004;2023-01-16T09:20:15;35.83;;;18.95;;
59442;SDS011;45247;47.466;19.004;2023-01-16T09:22:44;34.00;;;18.35;;
59442;SDS011;45247;47.466;19.004;2023-01-16T09:25:13;32.20;;;19.02;;
59442;SDS011;45247;47.466;19.004;2023-01-16T09:27:43;37.22;;;19.25;;
59442;SDS011;45247;47.466;19.004;2023-01-16T09:30:12;32.67;;;18.05;;
59442;SDS011;45247;47.466;19.004;2023-01-16T09:32:43;36.92;;;19.70;;
59442;SDS011;45247;47.466;19.004;2023-01-16T09:35:13;37.00;;;18.77;;
59442;SDS011;45247;47.466;19.004;2023-01-16T09:37:42;37.95;;;19.70;;
59442;SDS011;45247;47.466;19.004;2023-01-16T09:40:12;39.45;;;20.27;;
59442;SDS011;45247;47.466;19.004;2023-01-16T09:42:51;37.33;;;18.42;;
59442;SDS011;45247;47.466;19.004;2023-01-16T09:45:44;35.33;;;18.08;;
59442;SDS011;45247;47.466;19.004;2023-01-16T09:48:14;37.33;;;19.85;;
59442;SDS011;45247;47.466;19.004;2023-01-16T09:50:51;40.42;;;20.08;;
59442;SDS011;45247;47.466;19.004;2023-01-16T09:53:25;39.28;;;21.70;;
59442;SDS011;45247;47.466;19.004;2023-01-16T09:56:18;36.85;;;18.80;;
59442;SDS011;45247;47.466;19.004;2023-01-16T09:59:12;34.50;;;19.20;;
59442;SDS011;45247;47.466;19.004;2023-01-16T10:01:52;41.65;;;20.58;;
59442;SDS011;45247;47.466;19.004;2023-01-16T10:04:24;43.28;;;19.38;;
59442;SDS011;45247;47.466;19.004;2023-01-16T10:07:02;42.45;;;21.45;;
59442;SDS011;45247;47.466;19.004;2023-01-16T10:09:48;37.67;;;19.67;;
59442;SDS011;45247;47.466;19.004;2023-01-16T10:12:29;37.25;;;19.95;;
59442;SDS011;45247;47.466;19.004;2023-01-16T10:15:07;41.13;;;20.42;;
59442;SDS011;45247;47.466;19.004;2023-01-16T10:17:48;36.75;;;20.00;;
59442;SDS011;45247;47.466;19.004;2023-01-16T10:20:34;39.93;;;20.50;;
59442;SDS011;45247;47.466;19.004;2023-01-16T10:23:17;39.47;;;20.30;;
59442;SDS011;45247;47.466;19.004;2023-01-16T10:25:58;44.50;;;20.13;;
59442;SDS011;45247;47.466;19.004;2023-01-16T10:28:36;46.53;;;21.83;;
59442;SDS011;45247;47.466;19.004;2023-01-16T10:31:20;48.13;;;23.02;;
59442;SDS011;45247;47.466;19.004;2023-01-16T10:33:52;42.80;;;22.15;;
59442;SDS011;45247;47.466;19.004;2023-01-16T10:36:26;42.40;;;21.65;;
59442;SDS011;45247;47.466;19.004;2023-01-16T10:38:59;48.30;;;21.92;;
59442;SDS011;45247;47.466;19.004;2023-01-16T10:41:28;44.67;;;21.33;;
59442;SDS011;45247;47.466;19.004;2023-01-16T10:44:22;39.03;;;20.13;;
59442;SDS011;45247;47.466;19.004;2023-01-16T10:47:13;38.85;;;21.38;;
59442;SDS011;45247;47.466;19.004;2023-01-16T10:49:59;42.28;;;22.20;;
59442;SDS011;45247;47.466;19.004;2023-01-16T10:52:28;44.80;;;21.63;;
59442;SDS011;45247;47.466;19.004;2023-01-16T10:54:57;40.78;;;18.55;;
59442;SDS011;45247;47.466;19.004;2023-01-16T10:57:27;47.35;;;22.25;;
59442;SDS011;45247;47.466;19.004;2023-01-16T10:59:58;47.25;;;23.40;;
59442;SDS011;45247;47.466;19.004;2023-01-16T11:02:32;33.85;;;17.88;;
59442;SDS011;45247;47.466;19.004;2023-01-16T11:05:07;46.15;;;22.40;;
59442;SDS011;45247;47.466;19.004;2023-01-16T11:07:51;44.10;;;21.65;;
59442;SDS011;45247;47.466;19.004;2023-01-16T11:10:20;46.38;;;21.15;;
59442;SDS011;45247;47.466;19.004;2023-01-16T11:12:49;40.95;;;19.52;;
59442;SDS011;45247;47.466;19.004;2023-01-16T11:15:38;44.03;;;21.13;;
59442;SDS011;45247;47.466;19.004;2023-01-16T11:18:28;46.78;;;21.80;;
59442;SDS011;45247;47.466;19.004;2023-01-16T11:21:00;44.33;;;22.20;;
59442;SDS011;45247;47.466;19.004;2023-01-16T11:23:41;43.15;;;22.60;;
59442;SDS011;45247;47.466;19.004;2023-01-16T11:26:16;42.53;;;20.75;;
59442;SDS011;45247;47.466;19.004;2023-01-16T11:28:46;41.75;;;21.67;;
59442;SDS011;45247;47.466;19.004;2023-01-16T11:31:19;44.38;;;20.42;;
59442;SDS011;45247;47.466;19.004;2023-01-16T11:33:52;41.33;;;19.20;;
59442;SDS011;45247;47.466;19.004;2023-01-16T11:36:27;38.22;;;18.20;;
59442;SDS011;45247;47.466;19.004;2023-01-16T11:38:59;40.00;;;20.40;;
59442;SDS011;45247;47.466;19.004;2023-01-16T11:41:31;36.53;;;19.48;;
59442;SDS011;45247;47.466;19.004;2023-01-16T11:44:09;40.10;;;19.00;;
59442;SDS011;45247;47.466;19.004;2023-01-16T11:47:00;39.30;;;20.48;;
59442;SDS011;45247;47.466;19.004;2023-01-16T11:49:32;46.03;;;20.83;;
59442;SDS011;45247;47.466;19.004;2023-01-16T11:52:03;46.63;;;21.75;;
59442;SDS011;45247;47.466;19.004;2023-01-16T11:54:32;44.05;;;19.83;;
59442;SDS011;45247;47.466;19.004;2023-01-16T11:59:59;38.35;;;19.40;;
59442;SDS011;45247;47.466;19.004;2023-01-16T12:05:43;44.45;;;20.25;;
59442;SDS011;45247;47.466;19.004;2023-01-16T12:08:25;35.45;;;18.85;;
59442;SDS011;45247;47.466;19.004;2023-01-16T12:11:15;45.20;;;20.00;;
59442;SDS011;45247;47.466;19.004;2023-01-16T12:14:12;35.72;;;18.60;;
59442;SDS011;45247;47.466;19.004;2023-01-16T12:16:57;42.38;;;20.52;;
59442;SDS011;45247;47.466;19.004;2023-01-16T12:22:40;44.95;;;20.63;;
59442;SDS011;45247;47.466;19.004;2023-01-16T12:25:27;42.72;;;20.48;;
59442;SDS011;45247;47.466;19.004;2023-01-16T12:28:07;43.25;;;21.58;;
59442;SDS011;45247;47.466;19.004;2023-01-16T12:30:49;42.28;;;20.45;;
59442;SDS011;45247;47.466;19.004;2023-01-16T12:33:45;41.08;;;20.63;;
59442;SDS011;45247;47.466;19.004;2023-01-16T12:36:22;43.45;;;22.58;;
59442;SDS011;45247;47.466;19.004;2023-01-16T12:39:00;42.55;;;19.73;;
59442;SDS011;45247;47.466;19.004;2023-01-16T12:41:32;44.20;;;20.55;;
59442;SDS011;45247;47.466;19.004;2023-01-16T12:44:32;42.67;;;21.27;;
59442;SDS011;45247;47.466;19.004;2023-01-16T12:47:17;41.53;;;19.88;;
59442;SDS011;45247;47.466;19.004;2023-01-16T12:49:58;46.63;;;21.02;;
59442;SDS011;45247;47.466;19.004;2023-01-16T12:52:41;44.90;;;21.65;;
59442;SDS011;45247;47.466;19.004;2023-01-16T12:55:24;47.50;;;22.30;;
59442;SDS011;45247;47.466;19.004;2023-01-16T12:58:14;46.08;;;21.17;;
59442;SDS011;45247;47.466;19.004;2023-01-16T13:00:45;45.17;;;20.88;;
59442;SDS011;45247;47.466;19.004;2023-01-16T13:05:51;45.72;;;22.88;;
59442;SDS011;45247;47.466;19.004;2023-01-16T13:08:26;47.75;;;23.35;;
59442;SDS011;45247;47.466;19.004;2023-01-16T13:11:01;47.92;;;22.23;;
59442;SDS011;45247;47.466;19.004;2023-01-16T13:13:49;48.33;;;23.60;;
59442;SDS011;45247;47.466;19.004;2023-01-16T13:16:22;50.80;;;23.52;;
59442;SDS011;45247;47.466;19.004;2023-01-16T13:18:54;45.53;;;23.67;;
59442;SDS011;45247;47.466;19.004;2023-01-16T13:21:30;43.05;;;22.58;;
59442;SDS011;45247;47.466;19.004;2023-01-16T13:24:03;44.70;;;22.83;;
59442;SDS011;45247;47.466;19.004;2023-01-16T13:26:40;48.10;;;24.23;;
59442;SDS011;45247;47.466;19.004;2023-01-16T13:29:10;52.55;;;23.55;;
59442;SDS011;45247;47.466;19.004;2023-01-16T13:31:42;51.78;;;24.80;;
59442;SDS011;45247;47.466;19.004;2023-01-16T13:34:14;44.22;;;24.48;;
59442;SDS011;45247;47.466;19.004;2023-01-16T13:37:01;48.17;;;24.58;;
59442;SDS011;45247;47.466;19.004;2023-01-16T13:39:55;51.10;;;25.55;;
59442;SDS011;45247;47.466;19.004;2023-01-16T13:42:38;47.47;;;26.02;;
59442;SDS011;45247;47.466;19.004;2023-01-16T13:45:16;48.90;;;24.83;;
59442;SDS011;45247;47.466;19.004;2023-01-16T13:48:10;52.78;;;26.25;;
59442;SDS011;45247;47.466;19.004;2023-01-16T13:50:42;52.00;;;27.55;;
59442;SDS011;45247;47.466;19.004;2023-01-16T13:53:15;49.75;;;26.00;;
59442;SDS011;45247;47.466;19.004;2023-01-16T13:55:48;50.85;;;25.27;;
59442;SDS011;45247;47.466;19.004;2023-01-16T13:58:18;46.50;;;24.40;;
59442;SDS011;45247;47.466;19.004;2023-01-16T14:00:55;47.95;;;25.55;;
59442;SDS011;45247;47.466;19.004;2023-01-16T14:03:25;45.83;;;24.58;;
59442;SDS011;45247;47.466;19.004;2023-01-16T14:05:54;48.67;;;26.65;;
59442;SDS011;45247;47.466;19.004;2023-01-16T14:08:46;45.08;;;25.33;;
59442;SDS011;45247;47.466;19.004;2023-01-16T14:11:37;46.95;;;24.08;;
59442;SDS011;45247;47.466;19.004;2023-01-16T14:14:21;48.65;;;25.45;;
59442;SDS011;45247;47.466;19.004;2023-01-16T14:17:13;47.42;;;25.90;;
59442;SDS011;45247;47.466;19.004;2023-01-16T14:19:50;44.58;;;25.02;;
59442;SDS011;45247;47.466;19.004;2023-01-16T14:22:26;46.47;;;23.95;;
59442;SDS011;45247;47.466;19.004;2023-01-16T14:25:20;45.25;;;24.70;;
59442;SDS011;45247;47.466;19.004;2023-01-16T14:27:53;38.65;;;21.48;;
59442;SDS011;45247;47.466;19.004;2023-01-16T14:30:29;40.55;;;23.13;;
59442;SDS011;45247;47.466;19.004;2023-01-16T14:33:02;44.95;;;24.05;;
59442;SDS011;45247;47.466;19.004;2023-01-16T14:35:40;45.63;;;24.30;;
59442;SDS011;45247;47.466;19.004;2023-01-16T14:38:12;40.83;;;21.90;;
59442;SDS011;45247;47.466;19.004;2023-01-16T14:40:46;44.17;;;23.27;;
59442;SDS011;45247;47.466;19.004;2023-01-16T14:43:36;47.83;;;26.17;;
59442;SDS011;45247;47.466;19.004;2023-01-16T14:46:27;43.60;;;22.60;;
59442;SDS011;45247;47.466;19.004;2023-01-16T14:55:47;42.97;;;22.70;;
59442;SDS011;45247;47.466;19.004;2023-01-16T14:58:24;42.72;;;22.10;;
59442;SDS011;45247;47.466;19.004;2023-01-16T15:01:03;39.40;;;20.77;;
59442;SDS011;45247;47.466;19.004;2023-01-16T15:04:01;41.70;;;20.90;;
59442;SDS011;45247;47.466;19.004;2023-01-16T15:06:33;38.28;;;20.08;;
59442;SDS011;45247;47.466;19.004;2023-01-16T15:09:04;42.30;;;21.02;;
59442;SDS011;45247;47.466;19.004;2023-01-16T15:11:47;38.58;;;21.40;;
59442;SDS011;45247;47.466;19.004;2023-01-16T15:14:23;38.70;;;19.60;;
59442;SDS011;45247;47.466;19.004;2023-01-16T15:17:15;36.58;;;19.55;;